Sheffield, Alabama
Current Conditions -  °F | °C
As of 10:05 PM on Sunday 25 Jan 2015 (Local Time) from KMSL Reporting Station
Overcast Overcast  
Wind Chill: 40°   Ceiling: 2200
Heat Index: 45°   Visibility: 10mi
Dew Point: 39°   Wind: 9mph
Humidity: 81%   Direction: 290°WNW
Pressure: 29.81"   Gusts: NA
Location:  34.76°N, 87.69°W
Report Text: KMSL 260405Z AUTO 29008KT 10SM SCT017 BKN022 OVC045 07/04 A2981 RMK AO2
Loading
Personal Weather Stations






























Interactive Weather Map New forecast layout! Learn more

10-Day Weather Forecast

Advertisements
Track Severe Weather on mobile